sensor_id;sensor_type;location;lat;lon;timestamp;temperature;humidity
11540;DHT22;5826;54.756;9.192;2023-02-01T00:02:01;5.50;99.90
11540;DHT22;5826;54.756;9.192;2023-02-01T00:04:27;5.30;99.90
11540;DHT22;5826;54.756;9.192;2023-02-01T00:06:53;5.10;99.90
11540;DHT22;5826;54.756;9.192;2023-02-01T00:09:18;5.10;99.90
11540;DHT22;5826;54.756;9.192;2023-02-01T00:11:44;4.90;99.90
11540;DHT22;5826;54.756;9.192;2023-02-01T00:14:10;4.70;99.90
11540;DHT22;5826;54.756;9.192;2023-02-01T00:16:35;4.50;99.90
11540;DHT22;5826;54.756;9.192;2023-02-01T00:19:04;4.40;99.90
11540;DHT22;5826;54.756;9.192;2023-02-01T00:21:30;4.30;99.90
11540;DHT22;5826;54.756;9.192;2023-02-01T00:23:57;4.20;99.90
11540;DHT22;5826;54.756;9.192;2023-02-01T00:26:32;4.20;99.90
11540;DHT22;5826;54.756;9.192;2023-02-01T00:28:59;4.30;99.90
11540;DHT22;5826;54.756;9.192;2023-02-01T00:31:24;4.30;99.90
11540;DHT22;5826;54.756;9.192;2023-02-01T00:33:50;4.30;99.90
11540;DHT22;5826;54.756;9.192;2023-02-01T00:36:15;4.50;99.90
11540;DHT22;5826;54.756;9.192;2023-02-01T00:38:41;4.60;99.90
11540;DHT22;5826;54.756;9.192;2023-02-01T00:41:12;4.60;99.90
11540;DHT22;5826;54.756;9.192;2023-02-01T00:43:39;4.70;99.90
11540;DHT22;5826;54.756;9.192;2023-02-01T00:46:04;4.70;99.90
11540;DHT22;5826;54.756;9.192;2023-02-01T00:48:30;4.80;99.90
11540;DHT22;5826;54.756;9.192;2023-02-01T00:51:04;4.90;99.90
11540;DHT22;5826;54.756;9.192;2023-02-01T00:53:31;5.00;99.90
11540;DHT22;5826;54.756;9.192;2023-02-01T00:55:57;5.10;99.90
11540;DHT22;5826;54.756;9.192;2023-02-01T00:58:23;5.20;99.90
11540;DHT22;5826;54.756;9.192;2023-02-01T01:01:13;5.30;99.90
11540;DHT22;5826;54.756;9.192;2023-02-01T01:03:42;5.40;99.90
11540;DHT22;5826;54.756;9.192;2023-02-01T01:06:10;5.40;99.90
11540;DHT22;5826;54.756;9.192;2023-02-01T01:08:36;5.50;99.90
11540;DHT22;5826;54.756;9.192;2023-02-01T01:11:13;5.50;99.90
11540;DHT22;5826;54.756;9.192;2023-02-01T01:13:39;5.50;99.90
11540;DHT22;5826;54.756;9.192;2023-02-01T01:16:06;5.50;99.90
11540;DHT22;5826;54.756;9.192;2023-02-01T01:18:32;5.60;99.90
11540;DHT22;5826;54.756;9.192;2023-02-01T01:20:59;5.60;99.90
11540;DHT22;5826;54.756;9.192;2023-02-01T01:23:24;5.60;99.90
11540;DHT22;5826;54.756;9.192;2023-02-01T01:25:50;5.70;99.90
11540;DHT22;5826;54.756;9.192;2023-02-01T01:28:16;5.60;99.90
11540;DHT22;5826;54.756;9.192;2023-02-01T01:30:42;5.60;99.90
11540;DHT22;5826;54.756;9.192;2023-02-01T01:33:07;5.60;99.90
11540;DHT22;5826;54.756;9.192;2023-02-01T01:35:33;5.70;99.90
11540;DHT22;5826;54.756;9.192;2023-02-01T01:38:00;5.70;99.90
11540;DHT22;5826;54.756;9.192;2023-02-01T01:40:27;5.70;99.90
11540;DHT22;5826;54.756;9.192;2023-02-01T01:42:52;5.70;99.90
11540;DHT22;5826;54.756;9.192;2023-02-01T01:45:34;5.70;99.90
11540;DHT22;5826;54.756;9.192;2023-02-01T01:48:20;5.80;99.90
11540;DHT22;5826;54.756;9.192;2023-02-01T01:51:03;5.80;99.90
11540;DHT22;5826;54.756;9.192;2023-02-01T01:53:36;5.80;99.90
11540;DHT22;5826;54.756;9.192;2023-02-01T01:56:03;5.80;99.90
11540;DHT22;5826;54.756;9.192;2023-02-01T01:58:30;5.80;99.90
11540;DHT22;5826;54.756;9.192;2023-02-01T02:00:57;5.80;99.90
11540;DHT22;5826;54.756;9.192;2023-02-01T02:03:39;5.80;99.90
11540;DHT22;5826;54.756;9.192;2023-02-01T02:06:19;5.80;99.90
11540;DHT22;5826;54.756;9.192;2023-02-01T02:08:46;5.80;99.90
11540;DHT22;5826;54.756;9.192;2023-02-01T02:11:16;5.90;99.90
11540;DHT22;5826;54.756;9.192;2023-02-01T02:13:45;5.90;99.90
11540;DHT22;5826;54.756;9.192;2023-02-01T02:16:15;5.80;99.90
11540;DHT22;5826;54.756;9.192;2023-02-01T02:27:46;5.80;99.90
11540;DHT22;5826;54.756;9.192;2023-02-01T02:39:15;5.90;99.90
11540;DHT22;5826;54.756;9.192;2023-02-01T02:44:51;5.90;99.90
11540;DHT22;5826;54.756;9.192;2023-02-01T02:47:47;5.90;99.90
11540;DHT22;5826;54.756;9.192;2023-02-01T02:50:23;5.90;99.90
11540;DHT22;5826;54.756;9.192;2023-02-01T02:53:19;5.90;99.90
11540;DHT22;5826;54.756;9.192;2023-02-01T02:56:06;5.90;99.90
11540;DHT22;5826;54.756;9.192;2023-02-01T02:58:51;5.90;99.90
11540;DHT22;5826;54.756;9.192;2023-02-01T03:01:37;6.00;99.90
11540;DHT22;5826;54.756;9.192;2023-02-01T03:04:22;5.90;99.90
11540;DHT22;5826;54.756;9.192;2023-02-01T03:06:49;5.90;99.90
11540;DHT22;5826;54.756;9.192;2023-02-01T03:09:31;6.00;99.90
11540;DHT22;5826;54.756;9.192;2023-02-01T03:12:03;6.00;99.90
11540;DHT22;5826;54.756;9.192;2023-02-01T03:14:50;6.00;99.90
11540;DHT22;5826;54.756;9.192;2023-02-01T03:17:21;6.00;99.90
11540;DHT22;5826;54.756;9.192;2023-02-01T03:19:51;6.00;99.90
11540;DHT22;5826;54.756;9.192;2023-02-01T03:22:20;6.00;99.90
11540;DHT22;5826;54.756;9.192;2023-02-01T03:25:03;6.10;99.90
11540;DHT22;5826;54.756;9.192;2023-02-01T03:28:00;6.00;99.90
11540;DHT22;5826;54.756;9.192;2023-02-01T03:30:31;6.10;99.90
11540;DHT22;5826;54.756;9.192;2023-02-01T03:33:00;6.10;99.90
11540;DHT22;5826;54.756;9.192;2023-02-01T03:35:43;6.10;99.90
11540;DHT22;5826;54.756;9.192;2023-02-01T03:38:37;6.10;99.90
11540;DHT22;5826;54.756;9.192;2023-02-01T03:43:58;6.10;99.90
11540;DHT22;5826;54.756;9.192;2023-02-01T03:46:46;6.10;99.90
11540;DHT22;5826;54.756;9.192;2023-02-01T03:49:18;6.10;99.90
11540;DHT22;5826;54.756;9.192;2023-02-01T03:51:45;6.00;99.90
11540;DHT22;5826;54.756;9.192;2023-02-01T03:54:13;6.00;99.90
11540;DHT22;5826;54.756;9.192;2023-02-01T03:56:42;6.00;99.90
11540;DHT22;5826;54.756;9.192;2023-02-01T03:59:10;6.00;99.90
11540;DHT22;5826;54.756;9.192;2023-02-01T04:01:36;6.00;99.90
11540;DHT22;5826;54.756;9.192;2023-02-01T04:04:01;6.00;99.90
11540;DHT22;5826;54.756;9.192;2023-02-01T04:06:27;6.00;99.90
11540;DHT22;5826;54.756;9.192;2023-02-01T04:08:52;6.00;99.90
11540;DHT22;5826;54.756;9.192;2023-02-01T04:11:18;6.00;99.90
11540;DHT22;5826;54.756;9.192;2023-02-01T04:13:44;6.00;99.90
11540;DHT22;5826;54.756;9.192;2023-02-01T04:16:09;6.00;99.90
11540;DHT22;5826;54.756;9.192;2023-02-01T04:18:35;6.00;99.90
11540;DHT22;5826;54.756;9.192;2023-02-01T04:21:01;6.00;99.90
11540;DHT22;5826;54.756;9.192;2023-02-01T04:23:27;6.00;99.90
11540;DHT22;5826;54.756;9.192;2023-02-01T04:25:53;6.00;99.90
11540;DHT22;5826;54.756;9.192;2023-02-01T04:28:19;6.00;99.90
11540;DHT22;5826;54.756;9.192;2023-02-01T04:30:45;6.00;99.90
11540;DHT22;5826;54.756;9.192;2023-02-01T04:33:11;6.00;99.90
11540;DHT22;5826;54.756;9.192;2023-02-01T04:35:39;6.00;99.90
11540;DHT22;5826;54.756;9.192;2023-02-01T04:38:05;6.00;99.90
11540;DHT22;5826;54.756;9.192;2023-02-01T04:40:30;6.00;99.90
11540;DHT22;5826;54.756;9.192;2023-02-01T04:42:56;6.00;99.90
11540;DHT22;5826;54.756;9.192;2023-02-01T04:45:21;6.00;99.90
11540;DHT22;5826;54.756;9.192;2023-02-01T04:47:47;6.00;99.90
11540;DHT22;5826;54.756;9.192;2023-02-01T04:50:14;6.00;99.90
11540;DHT22;5826;54.756;9.192;2023-02-01T04:52:39;6.00;99.90
11540;DHT22;5826;54.756;9.192;2023-02-01T04:55:06;6.00;99.90
11540;DHT22;5826;54.756;9.192;2023-02-01T04:57:31;6.00;99.90
11540;DHT22;5826;54.756;9.192;2023-02-01T04:59:57;6.00;99.90
11540;DHT22;5826;54.756;9.192;2023-02-01T05:02:22;6.00;99.90
11540;DHT22;5826;54.756;9.192;2023-02-01T05:04:48;5.90;99.90
11540;DHT22;5826;54.756;9.192;2023-02-01T05:07:14;5.90;99.90
11540;DHT22;5826;54.756;9.192;2023-02-01T05:09:39;5.90;99.90
11540;DHT22;5826;54.756;9.192;2023-02-01T05:12:05;5.90;99.90
11540;DHT22;5826;54.756;9.192;2023-02-01T05:14:49;5.90;99.90
11540;DHT22;5826;54.756;9.192;2023-02-01T05:17:15;5.90;99.90
11540;DHT22;5826;54.756;9.192;2023-02-01T05:19:40;5.80;99.90
11540;DHT22;5826;54.756;9.192;2023-02-01T05:22:06;5.80;99.90
11540;DHT22;5826;54.756;9.192;2023-02-01T05:24:31;5.80;99.90
11540;DHT22;5826;54.756;9.192;2023-02-01T05:26:57;5.90;99.90
11540;DHT22;5826;54.756;9.192;2023-02-01T05:29:22;5.90;99.90
11540;DHT22;5826;54.756;9.192;2023-02-01T05:31:48;5.90;99.90
11540;DHT22;5826;54.756;9.192;2023-02-01T05:34:15;5.90;99.90
11540;DHT22;5826;54.756;9.192;2023-02-01T05:36:40;5.90;99.90
11540;DHT22;5826;54.756;9.192;2023-02-01T05:39:06;5.80;99.90
11540;DHT22;5826;54.756;9.192;2023-02-01T05:41:32;5.80;99.90
11540;DHT22;5826;54.756;9.192;2023-02-01T05:43:57;5.70;99.90
11540;DHT22;5826;54.756;9.192;2023-02-01T05:46:23;5.80;99.90
11540;DHT22;5826;54.756;9.192;2023-02-01T05:48:48;5.80;99.90
11540;DHT22;5826;54.756;9.192;2023-02-01T05:51:14;5.80;99.90
11540;DHT22;5826;54.756;9.192;2023-02-01T05:53:39;5.90;99.90
11540;DHT22;5826;54.756;9.192;2023-02-01T05:56:05;5.90;99.90
11540;DHT22;5826;54.756;9.192;2023-02-01T05:58:31;5.90;99.90
11540;DHT22;5826;54.756;9.192;2023-02-01T06:00:59;5.90;99.90
11540;DHT22;5826;54.756;9.192;2023-02-01T06:03:25;5.90;99.90
11540;DHT22;5826;54.756;9.192;2023-02-01T06:05:51;5.90;99.90
11540;DHT22;5826;54.756;9.192;2023-02-01T06:08:16;5.90;99.90
11540;DHT22;5826;54.756;9.192;2023-02-01T06:10:42;6.00;99.90
11540;DHT22;5826;54.756;9.192;2023-02-01T06:13:08;6.00;99.90
11540;DHT22;5826;54.756;9.192;2023-02-01T06:15:34;6.20;99.90
11540;DHT22;5826;54.756;9.192;2023-02-01T06:18:00;6.00;99.90
11540;DHT22;5826;54.756;9.192;2023-02-01T06:20:26;6.10;99.90
11540;DHT22;5826;54.756;9.192;2023-02-01T06:22:51;6.10;99.90
11540;DHT22;5826;54.756;9.192;2023-02-01T06:25:18;6.10;99.90
11540;DHT22;5826;54.756;9.192;2023-02-01T06:27:44;6.10;99.90
11540;DHT22;5826;54.756;9.192;2023-02-01T06:30:10;6.20;99.90
11540;DHT22;5826;54.756;9.192;2023-02-01T06:32:39;6.20;99.90
11540;DHT22;5826;54.756;9.192;2023-02-01T06:35:06;6.20;99.90
11540;DHT22;5826;54.756;9.192;2023-02-01T06:37:33;6.20;99.90
11540;DHT22;5826;54.756;9.192;2023-02-01T06:39:59;6.20;99.90
11540;DHT22;5826;54.756;9.192;2023-02-01T06:42:25;6.10;99.90
11540;DHT22;5826;54.756;9.192;2023-02-01T06:44:50;6.20;99.90
11540;DHT22;5826;54.756;9.192;2023-02-01T06:47:16;6.10;99.90
11540;DHT22;5826;54.756;9.192;2023-02-01T06:49:42;6.10;99.90
11540;DHT22;5826;54.756;9.192;2023-02-01T06:52:07;6.10;99.90
11540;DHT22;5826;54.756;9.192;2023-02-01T06:54:33;6.10;99.90
11540;DHT22;5826;54.756;9.192;2023-02-01T06:56:59;6.10;99.90
11540;DHT22;5826;54.756;9.192;2023-02-01T06:59:25;6.00;99.90
11540;DHT22;5826;54.756;9.192;2023-02-01T07:01:50;6.10;99.90
11540;DHT22;5826;54.756;9.192;2023-02-01T07:04:16;6.00;99.90
11540;DHT22;5826;54.756;9.192;2023-02-01T07:06:41;6.00;99.90
11540;DHT22;5826;54.756;9.192;2023-02-01T07:09:07;6.00;99.90
11540;DHT22;5826;54.756;9.192;2023-02-01T07:11:33;6.10;99.90
11540;DHT22;5826;54.756;9.192;2023-02-01T07:13:59;6.10;99.90
11540;DHT22;5826;54.756;9.192;2023-02-01T07:16:26;6.10;99.90
11540;DHT22;5826;54.756;9.192;2023-02-01T07:18:52;6.10;99.90
11540;DHT22;5826;54.756;9.192;2023-02-01T07:21:18;6.10;99.90
11540;DHT22;5826;54.756;9.192;2023-02-01T07:23:44;6.10;99.90
11540;DHT22;5826;54.756;9.192;2023-02-01T07:26:11;6.10;99.90
11540;DHT22;5826;54.756;9.192;2023-02-01T07:28:38;6.10;99.90
11540;DHT22;5826;54.756;9.192;2023-02-01T07:31:13;6.10;99.90
11540;DHT22;5826;54.756;9.192;2023-02-01T07:33:41;6.10;99.90
11540;DHT22;5826;54.756;9.192;2023-02-01T07:36:14;6.10;99.90
11540;DHT22;5826;54.756;9.192;2023-02-01T07:38:40;6.10;99.90
11540;DHT22;5826;54.756;9.192;2023-02-01T07:41:06;6.00;99.90
11540;DHT22;5826;54.756;9.192;2023-02-01T07:43:33;6.00;99.90
11540;DHT22;5826;54.756;9.192;2023-02-01T07:45:59;6.00;99.90
11540;DHT22;5826;54.756;9.192;2023-02-01T07:48:25;6.00;99.90
11540;DHT22;5826;54.756;9.192;2023-02-01T07:50:58;6.00;99.90
11540;DHT22;5826;54.756;9.192;2023-02-01T07:53:25;6.10;99.90
11540;DHT22;5826;54.756;9.192;2023-02-01T07:55:50;6.10;99.90
11540;DHT22;5826;54.756;9.192;2023-02-01T07:58:16;6.10;99.90
11540;DHT22;5826;54.756;9.192;2023-02-01T08:00:41;6.10;99.90
11540;DHT22;5826;54.756;9.192;2023-02-01T08:03:25;6.10;99.90
11540;DHT22;5826;54.756;9.192;2023-02-01T08:05:55;6.10;99.90
11540;DHT22;5826;54.756;9.192;2023-02-01T08:08:21;6.00;99.90
11540;DHT22;5826;54.756;9.192;2023-02-01T08:10:46;6.00;99.90
11540;DHT22;5826;54.756;9.192;2023-02-01T08:13:11;5.90;99.90
11540;DHT22;5826;54.756;9.192;2023-02-01T08:15:37;5.90;99.90
11540;DHT22;5826;54.756;9.192;2023-02-01T08:18:03;5.90;99.90
11540;DHT22;5826;54.756;9.192;2023-02-01T08:20:28;6.00;99.90
11540;DHT22;5826;54.756;9.192;2023-02-01T08:22:54;6.00;99.90
11540;DHT22;5826;54.756;9.192;2023-02-01T08:25:21;6.00;99.90
11540;DHT22;5826;54.756;9.192;2023-02-01T08:27:47;6.00;99.90
11540;DHT22;5826;54.756;9.192;2023-02-01T08:30:13;6.00;99.90
11540;DHT22;5826;54.756;9.192;2023-02-01T08:32:39;5.90;99.90
11540;DHT22;5826;54.756;9.192;2023-02-01T08:35:05;6.00;99.90
11540;DHT22;5826;54.756;9.192;2023-02-01T08:37:30;6.00;99.90
11540;DHT22;5826;54.756;9.192;2023-02-01T08:39:56;6.00;99.90
11540;DHT22;5826;54.756;9.192;2023-02-01T08:42:22;6.10;99.90
11540;DHT22;5826;54.756;9.192;2023-02-01T08:45:07;6.10;99.90
11540;DHT22;5826;54.756;9.192;2023-02-01T08:47:36;6.20;99.90
11540;DHT22;5826;54.756;9.192;2023-02-01T08:50:02;6.20;99.90
11540;DHT22;5826;54.756;9.192;2023-02-01T08:52:27;6.30;99.90
11540;DHT22;5826;54.756;9.192;2023-02-01T08:54:53;6.30;99.90
11540;DHT22;5826;54.756;9.192;2023-02-01T08:57:19;6.30;99.90
11540;DHT22;5826;54.756;9.192;2023-02-01T08:59:45;6.40;99.90
11540;DHT22;5826;54.756;9.192;2023-02-01T09:02:15;6.40;99.90
11540;DHT22;5826;54.756;9.192;2023-02-01T09:04:41;6.50;99.90
11540;DHT22;5826;54.756;9.192;2023-02-01T09:07:08;6.50;99.90
11540;DHT22;5826;54.756;9.192;2023-02-01T09:09:34;6.50;99.90
11540;DHT22;5826;54.756;9.192;2023-02-01T09:11:59;6.50;99.90
11540;DHT22;5826;54.756;9.192;2023-02-01T09:14:25;6.50;99.90
11540;DHT22;5826;54.756;9.192;2023-02-01T09:16:50;6.60;99.90
11540;DHT22;5826;54.756;9.192;2023-02-01T09:19:16;6.50;99.90
11540;DHT22;5826;54.756;9.192;2023-02-01T09:21:41;6.50;99.90
11540;DHT22;5826;54.756;9.192;2023-02-01T09:24:10;6.50;99.90
11540;DHT22;5826;54.756;9.192;2023-02-01T09:26:36;6.60;99.90
11540;DHT22;5826;54.756;9.192;2023-02-01T09:29:01;6.60;99.90
11540;DHT22;5826;54.756;9.192;2023-02-01T09:31:29;6.60;99.90
11540;DHT22;5826;54.756;9.192;2023-02-01T09:33:54;6.60;99.90
11540;DHT22;5826;54.756;9.192;2023-02-01T09:36:20;6.70;99.90
11540;DHT22;5826;54.756;9.192;2023-02-01T09:38:45;6.70;99.90
11540;DHT22;5826;54.756;9.192;2023-02-01T09:41:32;6.70;99.90
11540;DHT22;5826;54.756;9.192;2023-02-01T09:44:13;6.80;99.90
11540;DHT22;5826;54.756;9.192;2023-02-01T09:46:42;6.80;99.90
11540;DHT22;5826;54.756;9.192;2023-02-01T09:49:19;6.80;99.90
11540;DHT22;5826;54.756;9.192;2023-02-01T09:51:48;6.90;99.90
11540;DHT22;5826;54.756;9.192;2023-02-01T09:54:18;6.90;99.90
11540;DHT22;5826;54.756;9.192;2023-02-01T09:56:57;6.90;99.90
11540;DHT22;5826;54.756;9.192;2023-02-01T09:59:38;7.00;99.90
11540;DHT22;5826;54.756;9.192;2023-02-01T10:02:12;7.00;99.90
11540;DHT22;5826;54.756;9.192;2023-02-01T10:04:38;7.10;99.90
11540;DHT22;5826;54.756;9.192;2023-02-01T10:10:02;7.20;99.90
11540;DHT22;5826;54.756;9.192;2023-02-01T10:15:52;7.20;99.90
11540;DHT22;5826;54.756;9.192;2023-02-01T10:18:43;7.30;99.90
11540;DHT22;5826;54.756;9.192;2023-02-01T10:21:15;7.30;99.90
11540;DHT22;5826;54.756;9.192;2023-02-01T10:26:55;7.50;99.90
11540;DHT22;5826;54.756;9.192;2023-02-01T10:29:27;7.50;99.90
11540;DHT22;5826;54.756;9.192;2023-02-01T10:31:56;7.60;99.90
11540;DHT22;5826;54.756;9.192;2023-02-01T10:34:27;7.60;99.90
11540;DHT22;5826;54.756;9.192;2023-02-01T10:36:55;7.70;99.90
11540;DHT22;5826;54.756;9.192;2023-02-01T10:39:22;7.70;99.90
11540;DHT22;5826;54.756;9.192;2023-02-01T10:41:48;7.80;99.90
11540;DHT22;5826;54.756;9.192;2023-02-01T10:44:17;7.90;99.90
11540;DHT22;5826;54.756;9.192;2023-02-01T10:46:45;8.00;99.90
11540;DHT22;5826;54.756;9.192;2023-02-01T10:49:18;8.20;99.90
11540;DHT22;5826;54.756;9.192;2023-02-01T10:51:50;8.10;99.90
11540;DHT22;5826;54.756;9.192;2023-02-01T10:54:22;8.00;99.90
11540;DHT22;5826;54.756;9.192;2023-02-01T10:56:56;7.80;99.90
11540;DHT22;5826;54.756;9.192;2023-02-01T10:59:25;7.30;99.90
11540;DHT22;5826;54.756;9.192;2023-02-01T11:01:58;7.00;99.90
11540;DHT22;5826;54.756;9.192;2023-02-01T11:04:25;6.80;99.90
11540;DHT22;5826;54.756;9.192;2023-02-01T11:07:16;6.60;99.90
11540;DHT22;5826;54.756;9.192;2023-02-01T11:09:49;6.40;99.90
11540;DHT22;5826;54.756;9.192;2023-02-01T11:12:37;6.30;99.90
11540;DHT22;5826;54.756;9.192;2023-02-01T11:15:21;6.20;99.90
11540;DHT22;5826;54.756;9.192;2023-02-01T11:17:49;6.00;99.90
11540;DHT22;5826;54.756;9.192;2023-02-01T11:22:57;5.50;99.90
11540;DHT22;5826;54.756;9.192;2023-02-01T11:25:24;5.30;99.90
11540;DHT22;5826;54.756;9.192;2023-02-01T11:27:53;5.20;99.90
11540;DHT22;5826;54.756;9.192;2023-02-01T11:30:33;5.20;99.90
11540;DHT22;5826;54.756;9.192;2023-02-01T11:33:00;5.20;99.90
11540;DHT22;5826;54.756;9.192;2023-02-01T11:35:27;5.20;99.90
11540;DHT22;5826;54.756;9.192;2023-02-01T11:37:58;5.30;99.90
11540;DHT22;5826;54.756;9.192;2023-02-01T11:40:37;5.50;99.90
11540;DHT22;5826;54.756;9.192;2023-02-01T11:43:08;5.60;99.90
11540;DHT22;5826;54.756;9.192;2023-02-01T11:45:34;5.70;99.90
11540;DHT22;5826;54.756;9.192;2023-02-01T11:48:00;5.90;99.90
11540;DHT22;5826;54.756;9.192;2023-02-01T11:50:46;6.10;99.90
11540;DHT22;5826;54.756;9.192;2023-02-01T11:53:38;6.20;99.90
11540;DHT22;5826;54.756;9.192;2023-02-01T11:59:23;6.50;99.90
11540;DHT22;5826;54.756;9.192;2023-02-01T12:05:06;6.70;99.90
11540;DHT22;5826;54.756;9.192;2023-02-01T12:07:51;6.70;99.90
11540;DHT22;5826;54.756;9.192;2023-02-01T12:13:27;6.10;99.90
11540;DHT22;5826;54.756;9.192;2023-02-01T12:16:09;5.60;99.90
11540;DHT22;5826;54.756;9.192;2023-02-01T12:21:20;5.00;99.90
11540;DHT22;5826;54.756;9.192;2023-02-01T12:29:33;4.70;99.90
11540;DHT22;5826;54.756;9.192;2023-02-01T12:37:51;5.10;99.90
11540;DHT22;5826;54.756;9.192;2023-02-01T12:43:45;5.30;99.90
11540;DHT22;5826;54.756;9.192;2023-02-01T12:46:37;5.40;99.90
11540;DHT22;5826;54.756;9.192;2023-02-01T12:49:10;5.50;99.90
11540;DHT22;5826;54.756;9.192;2023-02-01T12:51:39;5.60;99.90
11540;DHT22;5826;54.756;9.192;2023-02-01T12:54:13;5.60;99.90
11540;DHT22;5826;54.756;9.192;2023-02-01T12:56:46;5.70;99.90
11540;DHT22;5826;54.756;9.192;2023-02-01T13:01:56;6.10;99.90
11540;DHT22;5826;54.756;9.192;2023-02-01T13:04:31;6.20;99.90
11540;DHT22;5826;54.756;9.192;2023-02-01T13:07:12;6.40;99.90
11540;DHT22;5826;54.756;9.192;2023-02-01T13:12:34;7.00;99.90
11540;DHT22;5826;54.756;9.192;2023-02-01T13:15:15;7.70;99.90
11540;DHT22;5826;54.756;9.192;2023-02-01T13:17:44;8.30;99.90
11540;DHT22;5826;54.756;9.192;2023-02-01T13:20:21;8.30;99.90
11540;DHT22;5826;54.756;9.192;2023-02-01T13:22:58;8.00;99.90
11540;DHT22;5826;54.756;9.192;2023-02-01T13:25:48;7.70;99.90
11540;DHT22;5826;54.756;9.192;2023-02-01T13:28:28;7.40;99.90
11540;DHT22;5826;54.756;9.192;2023-02-01T13:31:18;7.30;99.90
11540;DHT22;5826;54.756;9.192;2023-02-01T13:39:48;7.10;99.90
11540;DHT22;5826;54.756;9.192;2023-02-01T13:42:21;7.10;99.90
11540;DHT22;5826;54.756;9.192;2023-02-01T13:44:56;7.10;99.90
11540;DHT22;5826;54.756;9.192;2023-02-01T13:47:32;7.20;99.90
11540;DHT22;5826;54.756;9.192;2023-02-01T13:50:24;7.10;99.90
11540;DHT22;5826;54.756;9.192;2023-02-01T13:53:00;7.00;99.90
11540;DHT22;5826;54.756;9.192;2023-02-01T13:55:34;7.00;99.90
11540;DHT22;5826;54.756;9.192;2023-02-01T13:58:15;6.90;99.90
11540;DHT22;5826;54.756;9.192;2023-02-01T14:00:43;6.80;99.90
11540;DHT22;5826;54.756;9.192;2023-02-01T14:03:14;6.80;99.90
11540;DHT22;5826;54.756;9.192;2023-02-01T14:08:11;6.70;99.90
11540;DHT22;5826;54.756;9.192;2023-02-01T14:10:46;6.80;99.90
11540;DHT22;5826;54.756;9.192;2023-02-01T14:13:36;6.80;99.90
11540;DHT22;5826;54.756;9.192;2023-02-01T14:21:18;6.90;99.90
11540;DHT22;5826;54.756;9.192;2023-02-01T14:23:55;7.00;99.90
11540;DHT22;5826;54.756;9.192;2023-02-01T14:29:34;7.10;99.90
11540;DHT22;5826;54.756;9.192;2023-02-01T14:32:17;7.10;99.90
11540;DHT22;5826;54.756;9.192;2023-02-01T14:42:38;7.70;99.90
11540;DHT22;5826;54.756;9.192;2023-02-01T14:47:50;7.90;99.90
11540;DHT22;5826;54.756;9.192;2023-02-01T15:03:57;7.20;99.90
11540;DHT22;5826;54.756;9.192;2023-02-01T15:06:25;7.10;99.90
11540;DHT22;5826;54.756;9.192;2023-02-01T15:09:01;7.10;99.90
11540;DHT22;5826;54.756;9.192;2023-02-01T15:11:27;7.00;99.90
11540;DHT22;5826;54.756;9.192;2023-02-01T15:13:54;7.00;99.90
11540;DHT22;5826;54.756;9.192;2023-02-01T15:16:23;7.00;99.90
11540;DHT22;5826;54.756;9.192;2023-02-01T15:18:49;7.00;99.90
11540;DHT22;5826;54.756;9.192;2023-02-01T15:21:24;6.90;99.90
11540;DHT22;5826;54.756;9.192;2023-02-01T15:23:50;6.90;99.90
11540;DHT22;5826;54.756;9.192;2023-02-01T15:26:34;6.80;99.90
11540;DHT22;5826;54.756;9.192;2023-02-01T15:29:00;6.70;99.90
11540;DHT22;5826;54.756;9.192;2023-02-01T15:31:41;6.60;99.90
11540;DHT22;5826;54.756;9.192;2023-02-01T15:34:08;6.60;99.90
11540;DHT22;5826;54.756;9.192;2023-02-01T15:36:34;6.50;99.90
11540;DHT22;5826;54.756;9.192;2023-02-01T15:41:50;6.40;99.90
11540;DHT22;5826;54.756;9.192;2023-02-01T15:44:20;6.40;99.90
11540;DHT22;5826;54.756;9.192;2023-02-01T15:46:49;6.30;99.90
11540;DHT22;5826;54.756;9.192;2023-02-01T15:49:29;6.30;99.90
11540;DHT22;5826;54.756;9.192;2023-02-01T15:51:56;6.20;99.90
11540;DHT22;5826;54.756;9.192;2023-02-01T15:54:31;6.20;99.90
11540;DHT22;5826;54.756;9.192;2023-02-01T15:57:01;6.20;99.90
11540;DHT22;5826;54.756;9.192;2023-02-01T15:59:41;6.20;99.90
11540;DHT22;5826;54.756;9.192;2023-02-01T16:04:50;6.30;99.90
11540;DHT22;5826;54.756;9.192;2023-02-01T16:07:33;6.30;99.90
11540;DHT22;5826;54.756;9.192;2023-02-01T16:10:00;6.30;99.90
11540;DHT22;5826;54.756;9.192;2023-02-01T16:12:46;6.20;99.90
11540;DHT22;5826;54.756;9.192;2023-02-01T16:15:12;6.20;99.90
11540;DHT22;5826;54.756;9.192;2023-02-01T16:17:38;6.20;99.90
11540;DHT22;5826;54.756;9.192;2023-02-01T16:20:03;6.30;99.90
11540;DHT22;5826;54.756;9.192;2023-02-01T16:22:29;6.30;99.90
11540;DHT22;5826;54.756;9.192;2023-02-01T16:24:55;6.30;99.90
11540;DHT22;5826;54.756;9.192;2023-02-01T16:27:20;6.30;99.90
11540;DHT22;5826;54.756;9.192;2023-02-01T16:29:48;6.30;99.90
11540;DHT22;5826;54.756;9.192;2023-02-01T16:32:19;6.30;99.90
11540;DHT22;5826;54.756;9.192;2023-02-01T16:34:46;6.40;99.90
11540;DHT22;5826;54.756;9.192;2023-02-01T16:37:21;6.30;99.90
11540;DHT22;5826;54.756;9.192;2023-02-01T16:39:48;6.40;99.90
11540;DHT22;5826;54.756;9.192;2023-02-01T16:42:14;6.30;99.90
11540;DHT22;5826;54.756;9.192;2023-02-01T16:44:40;6.30;99.90
11540;DHT22;5826;54.756;9.192;2023-02-01T16:47:20;6.30;99.90
11540;DHT22;5826;54.756;9.192;2023-02-01T16:49:46;6.20;99.90
11540;DHT22;5826;54.756;9.192;2023-02-01T16:52:20;6.20;99.90
11540;DHT22;5826;54.756;9.192;2023-02-01T16:54:47;6.20;99.90
11540;DHT22;5826;54.756;9.192;2023-02-01T16:57:14;6.20;99.90
11540;DHT22;5826;54.756;9.192;2023-02-01T16:59:40;6.10;99.90
11540;DHT22;5826;54.756;9.192;2023-02-01T17:02:12;6.20;99.90
11540;DHT22;5826;54.756;9.192;2023-02-01T17:04:39;6.10;99.90
11540;DHT22;5826;54.756;9.192;2023-02-01T17:07:04;6.10;99.90
11540;DHT22;5826;54.756;9.192;2023-02-01T17:09:38;6.20;99.90
11540;DHT22;5826;54.756;9.192;2023-02-01T17:12:04;6.20;99.90
11540;DHT22;5826;54.756;9.192;2023-02-01T17:14:31;6.20;99.90
11540;DHT22;5826;54.756;9.192;2023-02-01T17:16:57;6.20;99.90
11540;DHT22;5826;54.756;9.192;2023-02-01T17:19:23;6.10;99.90
11540;DHT22;5826;54.756;9.192;2023-02-01T17:21:50;6.10;99.90
11540;DHT22;5826;54.756;9.192;2023-02-01T17:24:19;6.10;99.90
11540;DHT22;5826;54.756;9.192;2023-02-01T17:26:45;6.10;99.90
11540;DHT22;5826;54.756;9.192;2023-02-01T17:29:11;6.10;99.90
11540;DHT22;5826;54.756;9.192;2023-02-01T17:31:40;6.10;99.90
11540;DHT22;5826;54.756;9.192;2023-02-01T17:34:06;6.20;99.90
11540;DHT22;5826;54.756;9.192;2023-02-01T17:36:33;6.20;99.90
11540;DHT22;5826;54.756;9.192;2023-02-01T17:39:01;6.20;99.90
11540;DHT22;5826;54.756;9.192;2023-02-01T17:41:27;6.20;99.90
11540;DHT22;5826;54.756;9.192;2023-02-01T17:43:53;6.20;99.90
11540;DHT22;5826;54.756;9.192;2023-02-01T17:46:18;6.20;99.90
11540;DHT22;5826;54.756;9.192;2023-02-01T17:48:45;6.10;99.90
11540;DHT22;5826;54.756;9.192;2023-02-01T17:51:17;6.10;99.90
11540;DHT22;5826;54.756;9.192;2023-02-01T17:53:43;6.10;99.90
11540;DHT22;5826;54.756;9.192;2023-02-01T17:56:15;6.00;99.90
11540;DHT22;5826;54.756;9.192;2023-02-01T17:58:41;6.00;99.90
11540;DHT22;5826;54.756;9.192;2023-02-01T18:01:14;6.00;99.90
11540;DHT22;5826;54.756;9.192;2023-02-01T18:03:40;6.00;99.90
11540;DHT22;5826;54.756;9.192;2023-02-01T18:06:09;6.00;99.90
11540;DHT22;5826;54.756;9.192;2023-02-01T18:08:35;6.00;99.90
11540;DHT22;5826;54.756;9.192;2023-02-01T18:11:01;6.00;99.90
11540;DHT22;5826;54.756;9.192;2023-02-01T18:13:28;6.00;99.90
11540;DHT22;5826;54.756;9.192;2023-02-01T18:15:54;6.00;99.90